Terminal Aerodrome Forecast
Issued by NWS Shreveport, LA

Home | Current Version | Previous Version | Text Only | Print | Product List | Glossary On
Versions: 1 2 3 4 5 6 7 8 9 10 11 12 13 14 15
000
FTUS44 KSHV 281750
TAFSHV
TAF
KSHV 281750Z 2818/2918 14010KT P6SM SCT040 SCT080
     FM290000 14006KT P6SM BKN050 BKN090
     FM290900 15006KT P6SM BKN025 OVC035
      TEMPO 2910/2912 BKN008 BKN015
     FM291200 15004KT 4SM BR OVC008
     FM291500 17008KT P6SM OVC015=

USA.gov is the U.S. government's official web portal to all federal, state and local government web resources and services.